createdAt,value
2018-09-18T00:00:05.469Z,12.47
2018-09-18T00:02:33.951Z,14.63
2018-09-18T00:05:02.461Z,13.70
2018-09-18T00:07:31.307Z,14.10
2018-09-18T00:09:59.853Z,12.83
2018-09-18T00:12:28.551Z,12.63
2018-09-18T00:14:57.080Z,11.50
2018-09-18T00:17:25.582Z,12.13
2018-09-18T00:19:54.091Z,14.43
2018-09-18T00:22:22.659Z,11.33
2018-09-18T00:24:51.176Z,10.27
2018-09-18T00:27:19.676Z,10.13
2018-09-18T00:29:48.159Z,11.07
2018-09-18T00:32:16.668Z,9.43
2018-09-18T00:34:45.184Z,10.10
2018-09-18T00:37:13.707Z,11.03
2018-09-18T00:39:42.200Z,11.00
2018-09-18T00:42:10.731Z,10.97
2018-09-18T00:44:39.234Z,12.03
2018-09-18T00:47:07.728Z,12.53
2018-09-18T00:49:36.216Z,16.90
2018-09-18T00:52:04.725Z,12.87
2018-09-18T00:54:33.258Z,12.73
2018-09-18T00:57:02.680Z,12.70
2018-09-18T00:59:31.906Z,11.27
2018-09-18T01:02:00.368Z,11.87
2018-09-18T01:04:28.887Z,10.73
2018-09-18T01:06:57.424Z,11.67
2018-09-18T01:09:25.908Z,11.93
2018-09-18T01:11:54.552Z,11.63
2018-09-18T01:14:23.040Z,12.57
2018-09-18T01:16:51.566Z,12.00
2018-09-18T01:19:20.062Z,28.07
2018-09-18T01:21:48.692Z,14.37
2018-09-18T01:24:17.195Z,13.27
2018-09-18T01:26:45.708Z,13.70
2018-09-18T01:29:14.243Z,14.53
2018-09-18T01:31:42.723Z,13.13
2018-09-18T01:34:11.208Z,13.87
2018-09-18T01:36:39.763Z,13.53
2018-09-18T01:39:08.970Z,13.97
2018-09-18T01:41:37.458Z,15.93
2018-09-18T01:44:05.976Z,13.30
2018-09-18T01:46:34.460Z,13.23
2018-09-18T01:49:02.940Z,16.17
2018-09-18T01:51:31.455Z,13.93
2018-09-18T01:53:59.912Z,15.03
2018-09-18T01:56:29.614Z,14.03
2018-09-18T01:58:58.127Z,16.00
2018-09-18T02:01:26.663Z,15.43
2018-09-18T02:03:55.415Z,16.97
2018-09-18T02:06:24.176Z,13.27
2018-09-18T02:08:52.671Z,14.27
2018-09-18T02:11:21.167Z,12.60
2018-09-18T02:13:49.653Z,16.23
2018-09-18T02:16:18.128Z,16.00
2018-09-18T02:18:46.607Z,13.90
2018-09-18T02:21:15.084Z,14.53
2018-09-18T02:23:43.591Z,14.00
2018-09-18T02:26:12.101Z,15.63
2018-09-18T02:28:40.759Z,13.23
2018-09-18T02:31:09.267Z,14.03
2018-09-18T02:33:37.750Z,14.33
2018-09-18T02:36:06.468Z,15.40
2018-09-18T02:38:35.519Z,16.20
2018-09-18T02:41:03.984Z,13.60
2018-09-18T02:43:32.544Z,16.27
2018-09-18T02:46:00.997Z,13.03
2018-09-18T02:48:30.432Z,11.63
2018-09-18T02:50:58.973Z,11.60
2018-09-18T02:53:27.474Z,11.03
2018-09-18T02:55:55.930Z,9.70
2018-09-18T02:58:24.897Z,10.47
2018-09-18T03:00:53.380Z,10.17
2018-09-18T03:03:22.074Z,10.13
2018-09-18T03:05:50.555Z,8.40
2018-09-18T03:08:19.040Z,9.50
2018-09-18T03:10:47.524Z,9.73
2018-09-18T03:13:16.061Z,10.07
2018-09-18T03:15:44.536Z,9.43
2018-09-18T03:18:13.022Z,9.60
2018-09-18T03:20:41.536Z,11.20
2018-09-18T03:23:10.021Z,10.80
2018-09-18T03:25:38.482Z,10.17
2018-09-18T03:28:07.047Z,12.00
2018-09-18T03:30:35.555Z,13.13
2018-09-18T03:33:04.059Z,11.70
2018-09-18T03:35:32.623Z,12.77
2018-09-18T03:38:01.201Z,13.10
2018-09-18T03:40:29.723Z,12.17
2018-09-18T03:42:58.250Z,12.63
2018-09-18T03:45:26.759Z,13.30
2018-09-18T03:47:55.260Z,13.17
2018-09-18T03:50:23.783Z,12.63
2018-09-18T03:52:52.391Z,11.13
2018-09-18T03:55:20.859Z,12.03
2018-09-18T03:57:49.383Z,13.50
2018-09-18T04:00:17.875Z,12.57
2018-09-18T04:02:46.379Z,11.17
2018-09-18T04:05:14.900Z,13.47
2018-09-18T04:07:43.407Z,13.53
2018-09-18T04:10:11.910Z,12.30
2018-09-18T04:12:40.438Z,11.60
2018-09-18T04:15:08.950Z,12.97
2018-09-18T04:17:37.767Z,12.67
2018-09-18T04:20:06.354Z,11.20
2018-09-18T04:22:34.870Z,23.43
2018-09-18T04:25:03.351Z,22.80
2018-09-18T04:27:31.887Z,11.03
2018-09-18T04:30:00.373Z,11.10
2018-09-18T04:32:29.851Z,10.60
2018-09-18T04:34:58.354Z,9.63
2018-09-18T04:37:26.836Z,11.17
2018-09-18T04:39:55.326Z,10.57
2018-09-18T04:42:23.844Z,11.33
2018-09-18T04:44:52.813Z,12.73
2018-09-18T04:47:21.302Z,42.13
2018-09-18T04:49:49.819Z,73.60
2018-09-18T04:52:18.366Z,19.67
2018-09-18T04:54:46.875Z,17.30
2018-09-18T04:57:15.491Z,15.77
2018-09-18T04:59:43.983Z,15.37
2018-09-18T05:02:12.534Z,14.00
2018-09-18T05:04:41.059Z,14.57
2018-09-18T05:07:09.635Z,12.37
2018-09-18T05:09:38.863Z,12.93
2018-09-18T05:12:07.414Z,9.43
2018-09-18T05:14:35.919Z,11.47
2018-09-18T05:17:04.420Z,12.67
2018-09-18T05:19:33.021Z,11.23
2018-09-18T05:22:01.521Z,11.03
2018-09-18T05:24:30.016Z,11.43
2018-09-18T05:26:58.550Z,12.60
2018-09-18T05:29:27.290Z,13.13
2018-09-18T05:31:55.803Z,12.63
2018-09-18T05:34:24.346Z,12.63
2018-09-18T05:36:52.848Z,12.70
2018-09-18T05:39:21.556Z,13.43
2018-09-18T05:41:50.107Z,13.67
2018-09-18T05:44:18.687Z,12.50
2018-09-18T05:46:47.275Z,12.40
2018-09-18T05:49:15.823Z,12.47
2018-09-18T05:51:44.372Z,10.70
2018-09-18T05:54:12.884Z,10.07
2018-09-18T05:56:41.686Z,11.27
2018-09-18T05:59:10.255Z,10.27
2018-09-18T06:01:38.743Z,10.70
2018-09-18T06:04:07.343Z,10.97
2018-09-18T06:06:36.291Z,10.30
2018-09-18T06:09:08.281Z,10.40
2018-09-18T06:11:37.044Z,10.13
2018-09-18T06:14:05.543Z,10.00
2018-09-18T06:16:34.536Z,10.70
2018-09-18T06:19:03.136Z,9.90
2018-09-18T06:21:31.594Z,11.93
2018-09-18T06:24:00.391Z,11.17
2018-09-18T06:26:28.870Z,11.20
2018-09-18T06:28:57.831Z,9.80
2018-09-18T06:31:26.360Z,8.73
2018-09-18T06:33:54.848Z,8.50
2018-09-18T06:36:23.441Z,8.80
2018-09-18T06:38:52.099Z,9.63
2018-09-18T06:41:20.847Z,9.40
2018-09-18T06:43:49.319Z,11.13
2018-09-18T06:46:17.899Z,9.17
2018-09-18T06:48:46.385Z,9.63
2018-09-18T06:51:14.860Z,9.70
2018-09-18T06:53:43.353Z,10.03
2018-09-18T06:56:11.855Z,8.23
2018-09-18T06:58:40.407Z,9.17
2018-09-18T07:01:09.001Z,8.10
2018-09-18T07:03:37.541Z,7.60
2018-09-18T07:06:06.576Z,8.20
2018-09-18T07:08:35.084Z,8.73
2018-09-18T07:11:03.595Z,8.77
2018-09-18T07:13:32.093Z,7.17
2018-09-18T07:16:00.634Z,7.53
2018-09-18T07:18:29.770Z,8.10
2018-09-18T07:20:58.280Z,7.87
2018-09-18T07:23:26.834Z,7.77
2018-09-18T07:25:55.331Z,9.40
2018-09-18T07:28:23.829Z,8.63
2018-09-18T07:30:52.334Z,9.00
2018-09-18T07:33:20.875Z,8.83
2018-09-18T07:35:49.445Z,11.83
2018-09-18T07:38:17.975Z,9.43
2018-09-18T07:40:46.471Z,6.63
2018-09-18T07:43:14.985Z,6.93
2018-09-18T07:45:43.481Z,7.73
2018-09-18T07:48:11.999Z,7.23
2018-09-18T07:50:40.493Z,6.60
2018-09-18T07:53:08.999Z,6.97
2018-09-18T07:55:37.520Z,5.97
2018-09-18T07:58:05.989Z,6.67
2018-09-18T08:00:34.508Z,7.40
2018-09-18T08:03:03.108Z,6.47
2018-09-18T08:05:31.587Z,5.83
2018-09-18T08:08:00.177Z,6.53
2018-09-18T08:10:28.689Z,6.13
2018-09-18T08:12:57.195Z,6.50
2018-09-18T08:15:25.753Z,6.03
2018-09-18T08:17:54.264Z,6.70
2018-09-18T08:20:22.899Z,6.53
2018-09-18T08:22:51.514Z,5.70
2018-09-18T08:25:20.289Z,6.37
2018-09-18T08:27:49.153Z,15.77
2018-09-18T08:30:17.839Z,6.37
2018-09-18T08:32:46.513Z,8.60
2018-09-18T08:35:15.148Z,6.43
2018-09-18T08:37:43.946Z,6.03
2018-09-18T08:40:12.694Z,5.90
2018-09-18T08:42:41.416Z,6.20
2018-09-18T08:45:10.133Z,6.17
2018-09-18T08:47:38.905Z,6.30
2018-09-18T08:50:07.632Z,5.83
2018-09-18T08:52:36.377Z,5.50
2018-09-18T08:55:05.884Z,5.90
2018-09-18T08:57:34.536Z,5.62
2018-09-18T09:00:03.187Z,6.27
2018-09-18T09:02:32.450Z,6.37
2018-09-18T09:05:01.118Z,6.07
2018-09-18T09:07:29.939Z,5.60
2018-09-18T09:09:58.461Z,5.97
2018-09-18T09:12:27.068Z,6.00
2018-09-18T09:14:55.869Z,6.77
2018-09-18T09:17:24.777Z,5.65
2018-09-18T09:22:40.403Z,5.53
2018-09-18T09:25:09.147Z,5.12
2018-09-18T09:27:38.351Z,5.35
2018-09-18T09:30:07.122Z,5.75
2018-09-18T09:32:35.774Z,6.42
2018-09-18T09:35:04.517Z,6.40
2018-09-18T09:37:33.241Z,5.12
2018-09-18T09:40:01.886Z,5.97
2018-09-18T09:42:30.617Z,6.00
2018-09-18T09:44:59.661Z,5.83
2018-09-18T09:47:28.238Z,6.27
2018-09-18T09:49:56.771Z,5.63
2018-09-18T09:52:25.373Z,5.03
2018-09-18T09:54:53.884Z,5.23
2018-09-18T09:57:22.904Z,6.03
2018-09-18T09:59:51.420Z,5.00
2018-09-18T10:02:25.759Z,4.87
2018-09-18T10:04:54.276Z,5.10
2018-09-18T10:07:22.856Z,4.87
2018-09-18T10:09:51.383Z,5.47
2018-09-18T10:12:20.756Z,5.03
2018-09-18T10:14:49.249Z,5.53
2018-09-18T10:17:18.332Z,5.20
2018-09-18T10:19:46.787Z,5.40
2018-09-18T10:22:15.280Z,5.03
2018-09-18T10:24:43.801Z,5.03
2018-09-18T10:27:12.310Z,5.47
2018-09-18T10:29:40.815Z,5.00
2018-09-18T10:32:09.372Z,5.27
2018-09-18T10:34:37.888Z,4.67
2018-09-18T10:37:06.575Z,5.10
2018-09-18T10:39:35.093Z,5.50
2018-09-18T10:42:03.624Z,5.60
2018-09-18T10:44:32.164Z,5.77
2018-09-18T10:47:00.781Z,4.83
2018-09-18T10:49:29.326Z,5.00
2018-09-18T10:51:57.839Z,5.00
2018-09-18T10:54:26.358Z,5.33
2018-09-18T10:56:54.928Z,5.23
2018-09-18T10:59:23.407Z,4.93
2018-09-18T11:01:52.601Z,4.83
2018-09-18T11:04:21.089Z,5.40
2018-09-18T11:06:49.589Z,5.30
2018-09-18T11:09:18.874Z,5.40
2018-09-18T11:11:47.497Z,5.20
2018-09-18T11:14:16.062Z,4.75
2018-09-18T11:16:44.551Z,4.93
2018-09-18T11:19:13.039Z,5.07
2018-09-18T11:21:42.626Z,5.37
2018-09-18T11:24:11.265Z,5.00
2018-09-18T11:26:39.770Z,5.27
2018-09-18T11:29:08.541Z,4.77
2018-09-18T11:31:37.154Z,5.20
2018-09-18T11:34:05.670Z,5.20
2018-09-18T11:36:34.419Z,5.00
2018-09-18T11:39:03.563Z,4.80
2018-09-18T11:41:32.239Z,5.10
2018-09-18T11:44:00.879Z,4.77
2018-09-18T11:46:29.601Z,4.97
2018-09-18T11:48:58.193Z,5.67
2018-09-18T11:51:26.955Z,5.40
2018-09-18T11:53:55.564Z,5.03
2018-09-18T11:56:24.305Z,4.58
2018-09-18T11:58:52.882Z,4.92
2018-09-18T12:01:22.860Z,4.90
2018-09-18T12:03:51.584Z,5.17
2018-09-18T12:06:21.256Z,5.30
2018-09-18T12:08:50.428Z,4.83
2018-09-18T12:11:19.047Z,5.20
2018-09-18T12:13:47.904Z,4.90
2018-09-18T12:16:16.821Z,4.93
2018-09-18T12:18:45.540Z,5.07
2018-09-18T12:21:14.666Z,4.90
2018-09-18T12:23:43.262Z,4.60
2018-09-18T12:26:12.546Z,4.60
2018-09-18T12:28:41.150Z,5.10
2018-09-18T12:31:09.727Z,5.10
2018-09-18T12:33:38.989Z,4.87
2018-09-18T12:36:09.017Z,4.97
2018-09-18T12:38:37.671Z,4.83
2018-09-18T12:41:06.441Z,5.40
2018-09-18T12:43:35.193Z,5.00
2018-09-18T12:46:04.312Z,4.40
2018-09-18T12:48:33.717Z,5.33
2018-09-18T12:51:02.603Z,5.07
2018-09-18T12:53:31.411Z,5.20
2018-09-18T12:56:00.487Z,4.97
2018-09-18T12:58:29.398Z,5.40
2018-09-18T13:00:58.521Z,4.97
2018-09-18T13:03:29.594Z,5.33
2018-09-18T13:05:58.463Z,5.13
2018-09-18T13:08:35.810Z,4.83
2018-09-18T13:11:05.193Z,4.60
2018-09-18T13:13:34.952Z,5.80
2018-09-18T13:16:05.861Z,5.33
2018-09-18T13:18:39.446Z,5.27
2018-09-18T13:21:09.519Z,5.23
2018-09-18T13:23:38.196Z,5.20
2018-09-18T13:26:14.069Z,5.67
2018-09-18T13:28:42.981Z,5.70
2018-09-18T13:31:11.669Z,5.50
2018-09-18T13:33:40.524Z,5.53
2018-09-18T13:36:09.274Z,5.03
2018-09-18T13:38:38.032Z,6.10
2018-09-18T13:41:06.874Z,5.07
2018-09-18T13:43:35.415Z,5.27
2018-09-18T13:46:04.032Z,5.53
2018-09-18T13:48:32.644Z,5.27
2018-09-18T13:51:06.716Z,5.77
2018-09-18T13:53:36.900Z,5.27
2018-09-18T13:56:06.023Z,5.57
2018-09-18T13:58:34.892Z,5.70
2018-09-18T14:01:03.843Z,15.07
2018-09-18T14:03:34.248Z,20.60
2018-09-18T14:06:05.487Z,7.47
2018-09-18T14:08:34.452Z,9.50
2018-09-18T14:13:56.426Z,5.77
2018-09-18T14:16:31.779Z,5.93
2018-09-18T14:19:03.640Z,5.83
2018-09-18T14:21:36.764Z,5.50
2018-09-18T14:24:08.168Z,5.23
2018-09-18T14:26:49.696Z,5.90
2018-09-18T14:32:13.781Z,5.70
2018-09-18T14:34:42.810Z,5.00
2018-09-18T14:37:20.562Z,5.30
2018-09-18T14:39:55.853Z,6.27
2018-09-18T14:42:24.512Z,6.37
2018-09-18T14:44:53.436Z,6.63
2018-09-18T14:47:22.218Z,6.37
2018-09-18T14:49:50.903Z,5.00
2018-09-18T14:52:21.388Z,5.47
2018-09-18T14:54:50.128Z,5.90
2018-09-18T15:00:19.724Z,6.10
2018-09-18T15:02:48.409Z,5.70
2018-09-18T15:05:25.485Z,5.90
2018-09-18T15:08:00.873Z,8.37
2018-09-18T15:10:34.742Z,35.13
2018-09-18T15:13:03.557Z,9.57
2018-09-18T15:15:32.313Z,8.77
2018-09-18T15:18:01.071Z,6.47
2018-09-18T15:20:29.589Z,8.77
2018-09-18T15:22:58.138Z,8.13
2018-09-18T15:25:26.937Z,7.27
2018-09-18T15:27:56.634Z,31.13
2018-09-18T15:30:26.384Z,17.20
2018-09-18T15:32:54.911Z,11.67
2018-09-18T15:35:23.539Z,9.83
2018-09-18T15:37:52.786Z,10.30
2018-09-18T15:40:21.436Z,8.70
2018-09-18T15:42:49.998Z,8.33
2018-09-18T15:45:20.003Z,12.40
2018-09-18T15:47:48.783Z,8.33
2018-09-18T15:50:17.595Z,8.40
2018-09-18T15:52:46.276Z,8.13
2018-09-18T15:55:15.004Z,8.37
2018-09-18T15:57:43.760Z,7.40
2018-09-18T16:00:12.507Z,7.33
2018-09-18T16:02:41.130Z,6.17
2018-09-18T16:05:09.724Z,6.10
2018-09-18T16:07:38.973Z,6.30
2018-09-18T16:10:07.991Z,5.67
2018-09-18T16:12:36.772Z,4.93
2018-09-18T16:15:05.593Z,14.80
2018-09-18T16:17:34.983Z,50.27
2018-09-18T16:20:03.681Z,8.77
2018-09-18T16:22:32.670Z,4.93
2018-09-18T16:25:01.440Z,5.43
2018-09-18T16:27:33.080Z,5.90
2018-09-18T16:30:01.890Z,6.00
2018-09-18T16:32:30.562Z,5.30
2018-09-18T16:34:59.661Z,5.00
2018-09-18T16:37:28.245Z,5.43
2018-09-18T16:39:57.039Z,6.43
2018-09-18T16:42:25.917Z,4.50
2018-09-18T16:44:54.800Z,6.13
2018-09-18T16:47:24.263Z,4.70
2018-09-18T16:49:52.934Z,4.63
2018-09-18T16:52:22.043Z,4.07
2018-09-18T16:54:50.823Z,4.70
2018-09-18T16:57:19.289Z,4.37
2018-09-18T16:59:47.955Z,4.57
2018-09-18T17:02:16.744Z,4.23
2018-09-18T17:04:45.474Z,4.20
2018-09-18T17:07:14.561Z,3.77
2018-09-18T17:09:43.426Z,3.80
2018-09-18T17:12:12.580Z,4.00
2018-09-18T17:14:41.103Z,4.37
2018-09-18T17:17:09.626Z,3.70
2018-09-18T17:19:39.909Z,3.70
2018-09-18T17:22:09.420Z,3.57
2018-09-18T17:24:38.106Z,9.67
2018-09-18T17:27:06.777Z,5.10
2018-09-18T17:29:35.351Z,3.63
2018-09-18T17:32:04.440Z,3.50
2018-09-18T17:34:33.188Z,3.33
2018-09-18T17:37:01.692Z,3.77
2018-09-18T17:39:30.252Z,2.80
2018-09-18T17:41:58.756Z,3.53
2018-09-18T17:44:27.419Z,3.23
2018-09-18T17:46:56.028Z,3.27
2018-09-18T17:49:25.279Z,3.40
2018-09-18T17:51:54.229Z,3.50
2018-09-18T17:54:22.852Z,3.10
2018-09-18T17:56:55.098Z,3.20
2018-09-18T17:59:23.640Z,3.07
2018-09-18T18:01:52.231Z,3.80
2018-09-18T18:04:20.778Z,2.53
2018-09-18T18:06:49.323Z,3.43
2018-09-18T18:09:18.487Z,3.00
2018-09-18T18:11:47.038Z,2.60
2018-09-18T18:14:15.860Z,2.10
2018-09-18T18:16:44.365Z,2.00
2018-09-18T18:19:13.002Z,2.40
2018-09-18T18:21:41.575Z,2.10
2018-09-18T18:24:10.300Z,2.60
2018-09-18T18:26:39.190Z,2.00
2018-09-18T18:29:08.207Z,2.40
2018-09-18T18:31:36.830Z,2.30
2018-09-18T18:34:05.469Z,2.60
2018-09-18T18:36:41.056Z,2.30
2018-09-18T18:39:10.428Z,2.40
2018-09-18T18:41:39.464Z,2.20
2018-09-18T18:44:08.116Z,3.17
2018-09-18T18:46:36.793Z,4.43
2018-09-18T18:49:05.511Z,6.87
2018-09-18T18:51:34.020Z,16.60
2018-09-18T18:54:02.648Z,2.73
2018-09-18T18:56:31.335Z,1.83
2018-09-18T18:58:59.836Z,2.50
2018-09-18T19:01:29.744Z,2.77
2018-09-18T19:03:58.363Z,2.97
2018-09-18T19:06:26.920Z,2.63
2018-09-18T19:08:55.467Z,2.97
2018-09-18T19:11:24.051Z,3.13
2018-09-18T19:13:52.601Z,3.60
2018-09-18T19:16:21.175Z,3.07
2018-09-18T19:18:49.821Z,2.23
2018-09-18T19:21:18.472Z,2.60
2018-09-18T19:23:47.012Z,7.90
2018-09-18T19:26:15.646Z,3.90
2018-09-18T19:28:44.193Z,2.83
2018-09-18T19:31:12.793Z,2.43
2018-09-18T19:33:41.420Z,2.07
2018-09-18T19:36:09.955Z,2.10
2018-09-18T19:38:38.465Z,2.30
2018-09-18T19:41:06.961Z,2.90
2018-09-18T19:43:35.503Z,2.30
2018-09-18T19:46:04.090Z,2.10
2018-09-18T19:48:32.600Z,2.40
2018-09-18T19:51:01.591Z,2.77
2018-09-18T19:53:30.113Z,2.97
2018-09-18T19:55:58.675Z,3.63
2018-09-18T19:58:27.270Z,3.33
2018-09-18T20:00:56.075Z,3.00
2018-09-18T20:03:24.796Z,3.03
2018-09-18T20:05:53.284Z,2.70
2018-09-18T20:08:21.824Z,2.37
2018-09-18T20:10:50.692Z,2.17
2018-09-18T20:13:19.213Z,2.20
2018-09-18T20:15:47.800Z,2.30
2018-09-18T20:18:16.526Z,2.50
2018-09-18T20:20:45.137Z,2.50
2018-09-18T20:23:13.758Z,2.03
2018-09-18T20:25:42.376Z,2.57
2018-09-18T20:28:11.046Z,2.80
2018-09-18T20:30:39.567Z,2.63
2018-09-18T20:33:08.396Z,1.90
2018-09-18T20:35:38.089Z,1.80
2018-09-18T20:38:08.080Z,1.93
2018-09-18T20:40:36.975Z,2.10
2018-09-18T20:43:06.536Z,2.00
2018-09-18T20:45:35.113Z,2.20
2018-09-18T20:48:03.627Z,2.03
2018-09-18T20:50:32.205Z,2.87
2018-09-18T20:53:00.731Z,2.60
2018-09-18T20:55:29.339Z,2.00
2018-09-18T20:57:57.941Z,2.20
2018-09-18T21:00:26.541Z,1.87
2018-09-18T21:02:55.052Z,1.60
2018-09-18T21:05:23.772Z,2.20
2018-09-18T21:07:52.332Z,1.90
2018-09-18T21:10:20.887Z,2.50
2018-09-18T21:12:49.409Z,2.60
2018-09-18T21:15:18.055Z,2.50
2018-09-18T21:17:46.624Z,2.20
2018-09-18T21:20:15.245Z,2.30
2018-09-18T21:22:43.745Z,2.40
2018-09-18T21:25:15.640Z,2.40
2018-09-18T21:27:45.672Z,2.10
2018-09-18T21:30:15.663Z,2.23
2018-09-18T21:32:44.205Z,2.10
2018-09-18T21:35:13.212Z,2.47
2018-09-18T21:37:42.022Z,2.80
2018-09-18T21:40:11.067Z,2.93
2018-09-18T21:42:39.725Z,2.83
2018-09-18T21:45:08.272Z,5.00
2018-09-18T21:47:36.804Z,2.40
2018-09-18T21:50:05.380Z,2.73
2018-09-18T21:52:33.958Z,2.67
2018-09-18T21:55:02.607Z,2.07
2018-09-18T21:57:31.155Z,2.40
2018-09-18T21:59:59.727Z,1.77
2018-09-18T22:02:28.374Z,2.20
2018-09-18T22:04:56.979Z,2.67
2018-09-18T22:07:25.548Z,3.30
2018-09-18T22:09:54.084Z,2.87
2018-09-18T22:12:22.624Z,3.23
2018-09-18T22:14:51.307Z,3.17
2018-09-18T22:17:19.964Z,3.60
2018-09-18T22:19:48.490Z,3.13
2018-09-18T22:22:17.176Z,3.57
2018-09-18T22:24:46.683Z,3.13
2018-09-18T22:27:15.272Z,4.23
2018-09-18T22:29:43.824Z,2.77
2018-09-18T22:32:12.344Z,3.10
2018-09-18T22:34:40.900Z,3.33
2018-09-18T22:37:09.491Z,3.17
2018-09-18T22:39:38.186Z,3.40
2018-09-18T22:42:07.206Z,3.87
2018-09-18T22:44:35.768Z,3.80
2018-09-18T22:47:04.259Z,3.60
2018-09-18T22:49:32.856Z,3.90
2018-09-18T22:52:01.484Z,4.00
2018-09-18T22:54:30.165Z,3.67
2018-09-18T22:56:58.764Z,3.70
2018-09-18T22:59:27.455Z,3.57
2018-09-18T23:01:56.063Z,2.93
2018-09-18T23:04:24.541Z,3.07
2018-09-18T23:06:53.123Z,2.70
2018-09-18T23:09:21.693Z,2.70
2018-09-18T23:11:50.260Z,2.57
2018-09-18T23:14:18.845Z,3.10
2018-09-18T23:16:47.577Z,2.90
2018-09-18T23:19:16.151Z,2.57
2018-09-18T23:21:45.182Z,2.40
2018-09-18T23:24:13.760Z,3.53
2018-09-18T23:26:42.379Z,2.83
2018-09-18T23:29:10.877Z,3.17
2018-09-18T23:31:39.413Z,2.80
2018-09-18T23:34:08.033Z,2.67
2018-09-18T23:36:36.573Z,2.70
2018-09-18T23:39:06.975Z,2.77
2018-09-18T23:41:36.039Z,2.80
2018-09-18T23:44:04.603Z,2.87
2018-09-18T23:46:33.199Z,2.90
2018-09-18T23:49:02.035Z,2.80
2018-09-18T23:51:30.783Z,2.87
2018-09-18T23:53:59.327Z,2.53
2018-09-18T23:56:28.024Z,3.10
2018-09-18T23:58:57.529Z,3.03
